createdAt,value
2023-08-28T00:00:04.820Z,13.60
2023-08-28T00:02:06.721Z,13.70
2023-08-28T00:04:08.547Z,13.60
2023-08-28T00:06:10.927Z,13.60
2023-08-28T00:08:12.891Z,13.60
2023-08-28T00:10:15.765Z,13.60
2023-08-28T00:12:17.472Z,13.60
2023-08-28T00:14:19.177Z,13.60
2023-08-28T00:16:21.031Z,13.60
2023-08-28T00:18:23.307Z,13.60
2023-08-28T00:20:25.065Z,13.50
2023-08-28T00:22:26.880Z,13.50
2023-08-28T00:24:28.612Z,13.30
2023-08-28T00:26:30.454Z,13.30
2023-08-28T00:28:32.405Z,13.30
2023-08-28T00:30:34.320Z,13.30
2023-08-28T00:32:36.238Z,13.40
2023-08-28T00:34:38.057Z,13.40
2023-08-28T00:36:40.193Z,13.40
2023-08-28T00:38:41.964Z,13.40
2023-08-28T00:40:43.916Z,13.30
2023-08-28T00:42:45.889Z,13.30
2023-08-28T00:44:47.614Z,13.20
2023-08-28T00:46:49.510Z,13.10
2023-08-28T00:48:51.327Z,13.00
2023-08-28T00:50:54.333Z,13.10
2023-08-28T00:52:59.235Z,13.00
2023-08-28T00:55:01.479Z,13.00
2023-08-28T00:57:04.662Z,12.90
2023-08-28T00:59:06.520Z,12.70
2023-08-28T01:01:08.435Z,12.40
2023-08-28T01:03:10.502Z,12.30
2023-08-28T01:05:12.586Z,12.20
2023-08-28T01:07:22.958Z,12.10
2023-08-28T01:09:50.954Z,12.10
2023-08-28T01:12:07.709Z,12.10
2023-08-28T01:14:17.842Z,12.20
2023-08-28T01:16:23.984Z,12.20
2023-08-28T01:18:27.390Z,12.30
2023-08-28T01:20:31.171Z,12.10
2023-08-28T01:22:34.980Z,12.20
2023-08-28T01:24:42.114Z,12.20
2023-08-28T01:26:43.978Z,12.20
2023-08-28T01:28:45.958Z,12.10
2023-08-28T01:30:50.277Z,12.00
2023-08-28T01:32:52.510Z,11.80
2023-08-28T01:34:54.332Z,11.60
2023-08-28T01:37:01.705Z,11.60
2023-08-28T01:39:23.688Z,11.40
2023-08-28T01:41:27.223Z,11.30
2023-08-28T01:43:49.673Z,11.30
2023-08-28T01:45:52.623Z,11.20
2023-08-28T01:47:54.571Z,11.10
2023-08-28T01:49:56.321Z,11.00
2023-08-28T01:51:58.137Z,11.00
2023-08-28T01:53:59.995Z,11.00
2023-08-28T01:56:10.871Z,11.20
2023-08-28T01:58:15.956Z,11.40
2023-08-28T02:00:17.671Z,11.30
2023-08-28T02:02:19.458Z,11.20
2023-08-28T02:04:21.193Z,11.30
2023-08-28T02:06:22.977Z,11.20
2023-08-28T02:08:24.870Z,11.20
2023-08-28T02:10:26.900Z,11.20
2023-08-28T02:12:28.637Z,11.30
2023-08-28T02:14:30.395Z,11.10
2023-08-28T02:16:32.298Z,11.00
2023-08-28T02:18:34.124Z,10.90
2023-08-28T02:20:37.079Z,10.90
2023-08-28T02:22:38.853Z,10.80
2023-08-28T02:24:40.618Z,10.80
2023-08-28T02:26:42.375Z,10.80
2023-08-28T02:28:44.217Z,10.70
2023-08-28T02:30:46.825Z,10.80
2023-08-28T02:32:48.694Z,11.00
2023-08-28T02:34:50.583Z,11.00
2023-08-28T02:36:52.511Z,11.00
2023-08-28T02:38:54.442Z,11.00
2023-08-28T02:41:06.443Z,11.00
2023-08-28T02:43:08.720Z,11.00
2023-08-28T02:45:10.719Z,11.00
2023-08-28T02:47:12.535Z,11.00
2023-08-28T02:49:14.301Z,10.90
2023-08-28T02:51:16.414Z,10.90
2023-08-28T02:53:18.918Z,10.90
2023-08-28T02:55:20.659Z,10.80
2023-08-28T02:57:22.411Z,10.80
2023-08-28T02:59:24.318Z,10.80
2023-08-28T03:01:26.406Z,10.80
2023-08-28T03:03:28.263Z,10.80
2023-08-28T03:05:30.164Z,10.80
2023-08-28T03:07:31.939Z,10.70
2023-08-28T03:09:33.752Z,10.90
2023-08-28T03:11:36.279Z,10.90
2023-08-28T03:13:38.175Z,11.00
2023-08-28T03:15:39.981Z,10.90
2023-08-28T03:17:41.776Z,11.00
2023-08-28T03:19:43.722Z,11.00
2023-08-28T03:21:45.613Z,11.30
2023-08-28T03:23:47.467Z,11.40
2023-08-28T03:25:51.204Z,11.40
2023-08-28T03:27:53.044Z,11.50
2023-08-28T03:29:54.811Z,11.50
2023-08-28T03:31:57.182Z,11.50
2023-08-28T03:34:01.161Z,11.70
2023-08-28T03:36:04.259Z,11.70
2023-08-28T03:38:06.953Z,11.70
2023-08-28T03:40:10.293Z,11.80
2023-08-28T03:42:12.062Z,11.80
2023-08-28T03:44:13.995Z,11.70
2023-08-28T03:46:15.857Z,11.80
2023-08-28T03:48:20.472Z,11.70
2023-08-28T03:50:22.216Z,11.70
2023-08-28T03:52:23.917Z,11.70
2023-08-28T03:54:26.020Z,11.60
2023-08-28T03:56:27.750Z,11.60
2023-08-28T03:58:30.717Z,11.60
2023-08-28T04:00:35.862Z,11.50
2023-08-28T04:02:38.177Z,11.50
2023-08-28T04:04:39.893Z,11.50
2023-08-28T04:06:41.690Z,11.50
2023-08-28T04:08:43.430Z,11.50
2023-08-28T04:10:45.243Z,11.50
2023-08-28T04:12:47.116Z,11.60
2023-08-28T04:14:48.864Z,11.60
2023-08-28T04:16:50.955Z,11.50
2023-08-28T04:18:52.724Z,11.40
2023-08-28T04:20:54.536Z,11.30
2023-08-28T04:22:56.330Z,11.30
2023-08-28T04:24:58.108Z,11.30
2023-08-28T04:26:59.867Z,11.20
2023-08-28T04:29:01.682Z,11.20
2023-08-28T04:31:03.539Z,11.10
2023-08-28T04:33:07.223Z,11.10
2023-08-28T04:35:09.514Z,11.20
2023-08-28T04:37:11.385Z,11.20
2023-08-28T04:39:13.224Z,11.10
2023-08-28T04:41:15.022Z,11.10
2023-08-28T04:43:16.847Z,11.20
2023-08-28T04:45:18.791Z,11.30
2023-08-28T04:47:20.786Z,11.30
2023-08-28T04:49:24.244Z,11.40
2023-08-28T04:51:26.013Z,11.50
2023-08-28T04:53:27.820Z,11.50
2023-08-28T04:55:29.765Z,11.50
2023-08-28T04:57:34.036Z,11.60
2023-08-28T04:59:35.970Z,11.50
2023-08-28T05:01:37.983Z,11.60
2023-08-28T05:03:39.884Z,11.70
2023-08-28T05:05:43.609Z,11.70
2023-08-28T05:07:47.328Z,11.80
2023-08-28T05:09:49.194Z,11.90
2023-08-28T05:11:50.917Z,11.90
2023-08-28T05:13:54.036Z,12.00
2023-08-28T05:15:55.865Z,12.00
2023-08-28T05:17:57.720Z,12.00
2023-08-28T05:19:59.677Z,12.00
2023-08-28T05:22:01.473Z,12.10
2023-08-28T05:24:04.178Z,12.10
2023-08-28T05:26:05.939Z,12.20
2023-08-28T05:28:07.952Z,12.20
2023-08-28T05:30:10.976Z,12.30
2023-08-28T05:32:12.856Z,12.30
2023-08-28T05:34:14.616Z,12.40
2023-08-28T05:36:16.596Z,12.40
2023-08-28T05:38:18.416Z,12.50
2023-08-28T05:40:20.223Z,12.50
2023-08-28T05:42:22.075Z,12.50
2023-08-28T05:44:23.821Z,12.60
2023-08-28T05:46:25.842Z,12.60
2023-08-28T05:48:27.662Z,12.70
2023-08-28T05:50:29.512Z,12.80
2023-08-28T05:52:31.328Z,12.90
2023-08-28T05:54:37.262Z,12.90
2023-08-28T05:56:39.106Z,12.90
2023-08-28T05:58:41.232Z,13.10
2023-08-28T06:00:43.564Z,13.20
2023-08-28T06:02:45.419Z,13.30
2023-08-28T06:04:57.393Z,13.30
2023-08-28T06:06:59.143Z,13.40
2023-08-28T06:09:07.321Z,13.40
2023-08-28T06:11:09.171Z,13.50
2023-08-28T06:13:10.939Z,13.50
2023-08-28T06:15:15.056Z,13.50
2023-08-28T06:17:16.701Z,13.60
2023-08-28T06:19:18.492Z,13.60
2023-08-28T06:21:20.330Z,13.70
2023-08-28T06:23:22.706Z,13.80
2023-08-28T06:25:24.518Z,13.90
2023-08-28T06:27:26.283Z,14.00
2023-08-28T06:29:28.177Z,14.10
2023-08-28T06:31:29.988Z,14.20
2023-08-28T06:33:31.782Z,14.40
2023-08-28T06:35:33.516Z,14.40
2023-08-28T06:37:35.302Z,14.40
2023-08-28T06:39:37.176Z,14.40
2023-08-28T06:41:40.062Z,14.50
2023-08-28T06:43:42.093Z,14.50
2023-08-28T06:45:46.886Z,14.60
2023-08-28T06:47:48.706Z,14.60
2023-08-28T06:49:50.580Z,14.50
2023-08-28T06:51:52.479Z,14.60
2023-08-28T06:53:54.340Z,14.50
2023-08-28T06:55:56.045Z,14.70
2023-08-28T06:57:57.949Z,14.90
2023-08-28T06:59:59.853Z,14.80
2023-08-28T07:02:01.736Z,14.90
2023-08-28T07:04:06.045Z,15.00
2023-08-28T07:06:07.978Z,14.60
2023-08-28T07:08:09.723Z,14.50
2023-08-28T07:10:11.702Z,14.40
2023-08-28T07:12:13.645Z,14.50
2023-08-28T07:14:15.705Z,14.40
2023-08-28T07:16:17.512Z,14.60
2023-08-28T07:18:19.352Z,15.00
2023-08-28T07:20:21.916Z,15.20
2023-08-28T07:22:23.674Z,15.40
2023-08-28T07:24:25.757Z,15.50
2023-08-28T07:26:27.635Z,15.60
2023-08-28T07:28:29.589Z,15.40
2023-08-28T07:30:32.443Z,15.60
2023-08-28T07:32:36.898Z,15.70
2023-08-28T07:34:38.733Z,15.20
2023-08-28T07:36:41.884Z,15.20
2023-08-28T07:38:44.634Z,15.10
2023-08-28T07:40:48.769Z,15.40
2023-08-28T07:42:50.562Z,15.90
2023-08-28T07:44:52.505Z,16.40
2023-08-28T07:46:54.291Z,16.30
2023-08-28T07:48:56.060Z,15.50
2023-08-28T07:50:57.807Z,15.40
2023-08-28T07:52:59.868Z,15.20
2023-08-28T07:55:01.790Z,15.80
2023-08-28T07:57:05.256Z,16.10
2023-08-28T07:59:06.971Z,15.50
2023-08-28T08:01:10.109Z,15.70
2023-08-28T08:03:12.019Z,15.80
2023-08-28T08:05:13.859Z,16.10
2023-08-28T08:07:15.632Z,16.20
2023-08-28T08:09:18.052Z,16.40
2023-08-28T08:11:19.909Z,16.40
2023-08-28T08:13:21.714Z,16.50
2023-08-28T08:15:23.541Z,16.60
2023-08-28T08:17:25.449Z,16.60
2023-08-28T08:19:27.401Z,16.90
2023-08-28T08:21:29.320Z,16.70
2023-08-28T08:23:31.078Z,16.70
2023-08-28T08:25:34.573Z,16.30
2023-08-28T08:27:36.808Z,16.60
2023-08-28T08:29:38.604Z,16.70
2023-08-28T08:31:40.475Z,16.90
2023-08-28T08:33:42.495Z,17.40
2023-08-28T08:35:44.297Z,18.00
2023-08-28T08:37:48.922Z,18.00
2023-08-28T08:39:51.034Z,18.40
2023-08-28T08:41:52.863Z,18.20
2023-08-28T08:43:54.741Z,17.80
2023-08-28T08:46:05.911Z,17.20
2023-08-28T08:48:09.366Z,17.30
2023-08-28T08:50:13.641Z,17.80
2023-08-28T08:52:19.450Z,16.90
2023-08-28T08:54:25.986Z,16.80
2023-08-28T08:56:32.506Z,17.30
2023-08-28T08:58:35.087Z,17.70
2023-08-28T09:00:39.896Z,18.10
2023-08-28T09:02:42.739Z,18.20
2023-08-28T09:04:44.721Z,17.20
2023-08-28T09:06:49.635Z,17.20
2023-08-28T09:08:51.359Z,17.20
2023-08-28T09:10:58.386Z,17.50
2023-08-28T09:13:00.665Z,17.40
2023-08-28T09:15:05.214Z,17.80
2023-08-28T09:17:08.162Z,17.70
2023-08-28T09:19:10.003Z,17.80
2023-08-28T09:21:13.347Z,18.10
2023-08-28T09:23:15.130Z,18.20
2023-08-28T09:25:19.333Z,18.50
2023-08-28T09:27:21.162Z,18.50
2023-08-28T09:29:25.069Z,18.80
2023-08-28T09:31:35.206Z,17.90
2023-08-28T09:34:01.342Z,17.90
2023-08-28T09:36:15.370Z,17.50
2023-08-28T09:38:17.162Z,18.20
2023-08-28T09:40:27.254Z,19.20
2023-08-28T09:42:29.325Z,19.10
2023-08-28T09:44:35.658Z,19.10
2023-08-28T09:46:38.657Z,18.90
2023-08-28T09:48:41.095Z,19.50
2023-08-28T09:50:43.746Z,20.40
2023-08-28T09:52:45.951Z,21.00
2023-08-28T09:55:02.146Z,20.10
2023-08-28T09:57:15.721Z,20.00
2023-08-28T09:59:17.559Z,20.00
2023-08-28T10:01:19.626Z,21.00
2023-08-28T10:03:22.699Z,21.10
2023-08-28T10:05:25.251Z,21.00
2023-08-28T10:07:27.953Z,21.20
2023-08-28T10:09:33.740Z,21.50
2023-08-28T10:11:40.389Z,21.80
2023-08-28T10:13:42.815Z,21.40
2023-08-28T10:16:05.623Z,21.70
2023-08-28T10:18:17.085Z,21.60
2023-08-28T10:20:22.545Z,20.60
2023-08-28T10:22:26.454Z,20.50
2023-08-28T10:24:29.810Z,20.30
2023-08-28T10:26:32.074Z,20.00
2023-08-28T10:28:34.140Z,20.00
2023-08-28T10:30:36.337Z,20.80
2023-08-28T10:32:41.295Z,20.70
2023-08-28T10:34:43.769Z,20.70
2023-08-28T10:37:03.304Z,20.90
2023-08-28T10:39:11.034Z,21.10
2023-08-28T10:41:13.577Z,21.30
2023-08-28T10:43:15.864Z,21.60
2023-08-28T10:45:17.773Z,21.30
2023-08-28T10:47:20.899Z,20.80
2023-08-28T10:49:22.811Z,20.80
2023-08-28T10:51:34.056Z,20.80
2023-08-28T10:53:35.806Z,19.40
2023-08-28T10:55:37.718Z,19.00
2023-08-28T10:57:41.268Z,19.30
2023-08-28T10:59:47.032Z,19.50
2023-08-28T11:01:52.966Z,19.60
2023-08-28T11:03:57.859Z,19.90
2023-08-28T11:06:34.858Z,20.20
2023-08-28T11:08:36.707Z,19.80
2023-08-28T11:10:40.458Z,19.50
2023-08-28T11:12:54.194Z,19.30
2023-08-28T11:14:55.964Z,19.40
2023-08-28T11:17:07.013Z,19.40
2023-08-28T11:19:08.817Z,18.80
2023-08-28T11:21:10.686Z,18.40
2023-08-28T11:23:23.738Z,18.30
2023-08-28T11:25:40.485Z,18.20
2023-08-28T11:27:46.912Z,18.40
2023-08-28T11:29:49.043Z,18.50
2023-08-28T11:31:52.018Z,18.60
2023-08-28T11:33:55.509Z,18.80
2023-08-28T11:36:04.643Z,18.90
2023-08-28T11:38:06.472Z,18.70
2023-08-28T11:40:11.631Z,18.80
2023-08-28T11:42:13.872Z,19.10
2023-08-28T11:44:16.199Z,18.90
2023-08-28T11:46:18.543Z,19.00
2023-08-28T11:48:20.429Z,18.90
2023-08-28T11:50:22.466Z,19.30
2023-08-28T11:52:25.306Z,19.50
2023-08-28T11:54:28.202Z,19.90
2023-08-28T11:56:34.348Z,20.00
2023-08-28T11:58:38.868Z,19.70
2023-08-28T12:00:43.749Z,19.60
2023-08-28T12:02:47.901Z,19.80
2023-08-28T12:04:50.102Z,20.40
2023-08-28T12:06:51.905Z,20.70
2023-08-28T12:08:53.967Z,20.80
2023-08-28T12:10:55.939Z,19.90
2023-08-28T12:12:58.062Z,19.60
2023-08-28T12:15:00.204Z,19.80
2023-08-28T12:17:02.420Z,19.90
2023-08-28T12:19:04.738Z,19.80
2023-08-28T12:21:06.608Z,20.00
2023-08-28T12:23:08.423Z,20.40
2023-08-28T12:25:10.184Z,20.50
2023-08-28T12:27:13.381Z,20.70
2023-08-28T12:29:15.497Z,20.60
2023-08-28T12:31:27.534Z,20.50
2023-08-28T12:33:29.424Z,20.40
2023-08-28T12:35:43.107Z,20.30
2023-08-28T12:37:49.729Z,20.60
2023-08-28T12:39:53.554Z,20.50
2023-08-28T12:41:56.360Z,19.60
2023-08-28T12:43:58.110Z,19.90
2023-08-28T12:45:59.891Z,20.30
2023-08-28T12:48:03.445Z,20.40
2023-08-28T12:50:05.888Z,20.40
2023-08-28T12:52:09.026Z,20.40
2023-08-28T12:54:14.237Z,20.70
2023-08-28T12:56:17.957Z,20.30
2023-08-28T12:58:19.843Z,20.10
2023-08-28T13:00:21.629Z,19.60
2023-08-28T13:02:25.409Z,19.80
2023-08-28T13:04:27.519Z,20.10
2023-08-28T13:06:29.853Z,20.20
2023-08-28T13:08:31.859Z,20.20
2023-08-28T13:10:35.435Z,20.20
2023-08-28T13:12:38.343Z,19.90
2023-08-28T13:14:40.152Z,19.70
2023-08-28T13:16:43.162Z,19.80
2023-08-28T13:18:44.902Z,19.60
2023-08-28T13:20:46.732Z,19.50
2023-08-28T13:22:48.559Z,19.80
2023-08-28T13:24:50.395Z,20.10
2023-08-28T13:26:52.267Z,20.00
2023-08-28T13:28:56.696Z,20.30
2023-08-28T13:30:58.558Z,21.00
2023-08-28T13:33:03.590Z,22.00
2023-08-28T13:35:05.927Z,23.20
2023-08-28T13:37:07.678Z,23.70
2023-08-28T13:39:09.488Z,24.60
2023-08-28T13:41:11.212Z,23.40
2023-08-28T13:43:13.072Z,24.80
2023-08-28T13:45:14.922Z,24.70
2023-08-28T13:47:16.731Z,23.40
2023-08-28T13:49:18.589Z,23.00
2023-08-28T13:51:20.503Z,23.10
2023-08-28T13:53:22.897Z,22.40
2023-08-28T13:55:24.840Z,21.90
2023-08-28T13:57:26.635Z,21.60
2023-08-28T13:59:28.397Z,21.60
2023-08-28T14:01:30.141Z,21.50
2023-08-28T14:03:37.652Z,21.60
2023-08-28T14:05:39.495Z,21.60
2023-08-28T14:07:41.871Z,21.00
2023-08-28T14:09:43.665Z,20.80
2023-08-28T14:11:46.870Z,21.10
2023-08-28T14:13:48.743Z,20.90
2023-08-28T14:15:50.833Z,21.00
2023-08-28T14:17:52.790Z,21.00
2023-08-28T14:19:54.605Z,21.20
2023-08-28T14:21:56.530Z,20.80
2023-08-28T14:23:58.332Z,20.40
2023-08-28T14:26:05.621Z,20.10
2023-08-28T14:28:20.849Z,20.20
2023-08-28T14:30:23.422Z,20.10
2023-08-28T14:32:25.409Z,20.00
2023-08-28T14:34:27.273Z,20.00
2023-08-28T14:36:29.278Z,20.10
2023-08-28T14:38:32.377Z,20.20
2023-08-28T14:40:46.211Z,20.00
2023-08-28T14:42:50.393Z,19.90
2023-08-28T14:44:52.272Z,19.50
2023-08-28T14:46:54.180Z,19.30
2023-08-28T14:48:55.951Z,19.30
2023-08-28T14:50:57.746Z,19.20
2023-08-28T14:53:00.062Z,19.00
2023-08-28T14:55:01.895Z,18.60
2023-08-28T14:57:04.898Z,18.60
2023-08-28T14:59:06.708Z,18.80
2023-08-28T15:01:08.611Z,18.90
2023-08-28T15:03:10.749Z,19.00
2023-08-28T15:05:12.796Z,19.10
2023-08-28T15:07:14.565Z,19.10
2023-08-28T15:09:16.436Z,19.10
2023-08-28T15:11:18.709Z,19.20
2023-08-28T15:13:21.048Z,19.20
2023-08-28T15:15:22.873Z,19.30
2023-08-28T15:17:25.646Z,19.30
2023-08-28T15:19:27.550Z,19.30
2023-08-28T15:21:31.496Z,19.10
2023-08-28T15:23:33.305Z,18.90
2023-08-28T15:25:35.099Z,18.80
2023-08-28T15:27:36.914Z,18.70
2023-08-28T15:29:38.805Z,18.80
2023-08-28T15:31:40.639Z,18.80
2023-08-28T15:33:42.740Z,18.90
2023-08-28T15:35:44.643Z,18.90
2023-08-28T15:37:47.989Z,19.00
2023-08-28T15:39:49.929Z,18.80
2023-08-28T15:41:51.700Z,18.60
2023-08-28T15:43:53.528Z,18.70
2023-08-28T15:45:55.257Z,18.70
2023-08-28T15:47:57.049Z,18.60
2023-08-28T15:49:59.634Z,18.50
2023-08-28T15:52:01.440Z,18.50
2023-08-28T15:54:03.328Z,18.40
2023-08-28T15:56:06.000Z,18.30
2023-08-28T15:58:07.877Z,18.30
2023-08-28T16:00:11.106Z,18.40
2023-08-28T16:02:16.488Z,18.20
2023-08-28T16:04:19.880Z,18.30
2023-08-28T16:06:21.639Z,18.10
2023-08-28T16:08:23.906Z,18.30
2023-08-28T16:10:26.763Z,18.50
2023-08-28T16:12:28.785Z,18.60
2023-08-28T16:14:31.307Z,18.60
2023-08-28T16:16:33.177Z,18.70
2023-08-28T16:18:35.465Z,18.50
2023-08-28T16:20:44.886Z,18.40
2023-08-28T16:22:48.623Z,18.40
2023-08-28T16:24:50.454Z,18.40
2023-08-28T16:26:52.320Z,18.40
2023-08-28T16:28:55.430Z,18.20
2023-08-28T16:30:58.301Z,18.10
2023-08-28T16:33:00.218Z,17.90
2023-08-28T16:35:02.024Z,18.00
2023-08-28T16:37:03.948Z,17.90
2023-08-28T16:39:05.882Z,17.90
2023-08-28T16:41:07.693Z,17.80
2023-08-28T16:43:09.900Z,17.80
2023-08-28T16:45:12.182Z,17.60
2023-08-28T16:47:14.546Z,17.60
2023-08-28T16:49:17.605Z,17.60
2023-08-28T16:51:19.360Z,17.60
2023-08-28T16:53:21.210Z,17.60
2023-08-28T16:55:22.984Z,17.50
2023-08-28T16:57:24.772Z,17.50
2023-08-28T16:59:26.660Z,17.40
2023-08-28T17:01:28.491Z,17.40
2023-08-28T17:03:30.435Z,17.40
2023-08-28T17:05:33.746Z,17.30
2023-08-28T17:07:35.576Z,17.20
2023-08-28T17:09:37.453Z,17.20
2023-08-28T17:11:39.211Z,17.20
2023-08-28T17:13:41.004Z,17.30
2023-08-28T17:15:43.376Z,17.20
2023-08-28T17:17:45.591Z,17.20
2023-08-28T17:19:47.523Z,17.10
2023-08-28T17:21:49.813Z,17.10
2023-08-28T17:23:52.378Z,17.00
2023-08-28T17:25:54.224Z,16.90
2023-08-28T17:27:56.094Z,16.80
2023-08-28T17:29:58.172Z,16.70
2023-08-28T17:32:00.071Z,16.70
2023-08-28T17:34:01.884Z,16.60
2023-08-28T17:36:05.165Z,16.60
2023-08-28T17:38:07.123Z,16.60
2023-08-28T17:40:09.504Z,16.60
2023-08-28T17:42:11.307Z,16.60
2023-08-28T17:44:14.154Z,16.60
2023-08-28T17:46:16.001Z,16.50
2023-08-28T17:48:17.873Z,16.50
2023-08-28T17:50:20.190Z,16.40
2023-08-28T17:52:25.169Z,16.40
2023-08-28T17:54:27.632Z,16.30
2023-08-28T17:56:30.772Z,16.20
2023-08-28T17:58:32.587Z,16.20
2023-08-28T18:00:36.789Z,16.20
2023-08-28T18:02:57.729Z,16.10
2023-08-28T18:05:02.557Z,16.00
2023-08-28T18:07:04.457Z,16.00
2023-08-28T18:09:06.865Z,15.90
2023-08-28T18:11:08.761Z,15.90
2023-08-28T18:13:11.893Z,15.80
2023-08-28T18:15:15.210Z,15.70
2023-08-28T18:17:17.344Z,15.70
2023-08-28T18:19:19.125Z,15.70
2023-08-28T18:21:20.923Z,15.70
2023-08-28T18:23:22.822Z,15.60
2023-08-28T18:25:28.254Z,15.70
2023-08-28T18:27:30.435Z,15.70
2023-08-28T18:29:32.590Z,15.60
2023-08-28T18:31:34.431Z,15.60
2023-08-28T18:33:36.302Z,15.60
2023-08-28T18:35:43.755Z,15.60
2023-08-28T18:37:45.582Z,15.50
2023-08-28T18:39:51.201Z,15.50
2023-08-28T18:42:07.135Z,15.50
2023-08-28T18:44:11.008Z,15.50
2023-08-28T18:46:12.763Z,15.50
2023-08-28T18:48:15.308Z,15.40
2023-08-28T18:50:18.701Z,15.40
2023-08-28T18:52:21.179Z,15.40
2023-08-28T18:54:24.679Z,15.40
2023-08-28T18:56:26.584Z,15.40
2023-08-28T18:58:28.720Z,15.50
2023-08-28T19:00:31.384Z,15.50
2023-08-28T19:02:33.837Z,15.40
2023-08-28T19:04:35.692Z,15.40
2023-08-28T19:06:37.479Z,15.40
2023-08-28T19:08:39.303Z,15.40
2023-08-28T19:10:41.266Z,15.40
2023-08-28T19:12:43.029Z,15.40
2023-08-28T19:14:44.827Z,15.40
2023-08-28T19:16:46.611Z,15.50
2023-08-28T19:18:48.373Z,15.40
2023-08-28T19:21:00.157Z,15.50
2023-08-28T19:23:04.407Z,15.50
2023-08-28T19:25:07.590Z,15.50
2023-08-28T19:27:09.318Z,15.50
2023-08-28T19:29:11.308Z,15.40
2023-08-28T19:31:13.244Z,15.30
2023-08-28T19:33:15.484Z,15.30
2023-08-28T19:35:17.672Z,15.20
2023-08-28T19:37:19.413Z,15.20
2023-08-28T19:39:21.146Z,15.10
2023-08-28T19:41:22.954Z,15.10
2023-08-28T19:43:24.709Z,15.10
2023-08-28T19:45:26.452Z,15.10
2023-08-28T19:47:28.301Z,15.10
2023-08-28T19:49:30.187Z,15.10
2023-08-28T19:51:32.132Z,15.00
2023-08-28T19:53:33.934Z,15.00
2023-08-28T19:55:36.744Z,15.00
2023-08-28T19:57:38.548Z,15.10
2023-08-28T19:59:40.386Z,15.00
2023-08-28T20:01:42.138Z,15.00
2023-08-28T20:03:44.529Z,15.00
2023-08-28T20:05:46.387Z,15.00
2023-08-28T20:07:48.186Z,15.00
2023-08-28T20:09:50.754Z,15.00
2023-08-28T20:11:52.535Z,14.90
2023-08-28T20:13:54.324Z,14.90
2023-08-28T20:15:56.061Z,14.80
2023-08-28T20:17:58.975Z,14.80
2023-08-28T20:20:00.805Z,14.80
2023-08-28T20:22:05.124Z,14.80
2023-08-28T20:24:07.144Z,14.80
2023-08-28T20:26:09.041Z,14.80
2023-08-28T20:28:10.805Z,14.80
2023-08-28T20:30:13.031Z,14.80
2023-08-28T20:32:15.492Z,14.70
2023-08-28T20:34:17.284Z,14.70
2023-08-28T20:36:20.337Z,14.80
2023-08-28T20:38:22.223Z,14.80
2023-08-28T20:40:24.125Z,14.80
2023-08-28T20:42:25.933Z,14.80
2023-08-28T20:44:30.514Z,14.70
2023-08-28T20:46:32.915Z,14.80
2023-08-28T20:48:34.764Z,14.80
2023-08-28T20:50:38.838Z,14.80
2023-08-28T20:52:40.865Z,14.70
2023-08-28T20:54:42.687Z,14.70
2023-08-28T20:56:47.286Z,14.70
2023-08-28T20:58:49.786Z,14.70
2023-08-28T21:00:51.839Z,14.60
2023-08-28T21:02:53.861Z,14.60
2023-08-28T21:04:55.647Z,14.60
2023-08-28T21:06:57.497Z,14.60
2023-08-28T21:09:02.021Z,14.60
2023-08-28T21:11:03.900Z,14.60
2023-08-28T21:13:05.770Z,14.60
2023-08-28T21:15:07.647Z,14.60
2023-08-28T21:17:10.629Z,14.50
2023-08-28T21:19:27.982Z,14.50
2023-08-28T21:21:29.806Z,14.50
2023-08-28T21:23:32.298Z,14.50
2023-08-28T21:25:34.128Z,14.50
2023-08-28T21:27:35.985Z,14.60
2023-08-28T21:29:37.820Z,14.60
2023-08-28T21:31:39.881Z,14.50
2023-08-28T21:33:41.659Z,14.40
2023-08-28T21:35:43.456Z,14.30
2023-08-28T21:37:45.397Z,14.40
2023-08-28T21:39:47.169Z,14.40
2023-08-28T21:41:48.940Z,14.40
2023-08-28T21:43:50.686Z,14.20
2023-08-28T21:46:03.224Z,14.20
2023-08-28T21:48:05.580Z,14.20
2023-08-28T21:50:07.908Z,14.10
2023-08-28T21:52:09.646Z,14.20
2023-08-28T21:54:11.388Z,14.20
2023-08-28T21:56:13.599Z,14.20
2023-08-28T21:58:15.440Z,14.10
2023-08-28T22:00:20.314Z,14.10
2023-08-28T22:02:22.213Z,14.10
2023-08-28T22:04:24.520Z,14.10
2023-08-28T22:06:26.331Z,14.10
2023-08-28T22:08:28.090Z,14.00
2023-08-28T22:10:30.902Z,14.10
2023-08-28T22:12:32.722Z,14.10
2023-08-28T22:14:35.307Z,14.10
2023-08-28T22:16:37.086Z,14.10
2023-08-28T22:18:38.946Z,14.20
2023-08-28T22:20:43.190Z,14.20
2023-08-28T22:22:45.536Z,14.20
2023-08-28T22:24:47.265Z,14.20
2023-08-28T22:26:50.544Z,14.30
2023-08-28T22:28:53.975Z,14.30
2023-08-28T22:30:55.756Z,14.20
2023-08-28T22:32:57.609Z,14.20
2023-08-28T22:34:59.384Z,14.20
2023-08-28T22:37:01.472Z,14.30
2023-08-28T22:39:03.578Z,14.30
2023-08-28T22:41:05.921Z,14.30
2023-08-28T22:43:07.852Z,14.30
2023-08-28T22:45:10.188Z,14.30
2023-08-28T22:47:11.994Z,14.30
2023-08-28T22:49:13.684Z,14.30
2023-08-28T22:51:15.552Z,14.20
2023-08-28T22:53:17.254Z,14.20
2023-08-28T22:55:19.110Z,14.20
2023-08-28T22:57:20.939Z,14.30
2023-08-28T22:59:22.638Z,14.30
2023-08-28T23:01:25.792Z,14.40
2023-08-28T23:03:27.759Z,14.40
2023-08-28T23:05:29.730Z,14.40
2023-08-28T23:07:31.757Z,14.50
2023-08-28T23:09:33.581Z,14.50
2023-08-28T23:11:35.470Z,14.50
2023-08-28T23:13:37.317Z,14.50
2023-08-28T23:15:40.137Z,14.50
2023-08-28T23:17:42.332Z,14.40
2023-08-28T23:19:44.124Z,14.50
2023-08-28T23:21:45.907Z,14.50
2023-08-28T23:23:47.700Z,14.60
2023-08-28T23:25:54.612Z,14.60
2023-08-28T23:27:56.666Z,14.50
2023-08-28T23:29:58.508Z,14.50
2023-08-28T23:32:00.263Z,14.50
2023-08-28T23:34:04.262Z,14.40
2023-08-28T23:36:12.591Z,14.40
2023-08-28T23:38:14.440Z,14.40
2023-08-28T23:40:18.434Z,14.40
2023-08-28T23:42:20.562Z,14.40
2023-08-28T23:44:24.410Z,14.40
2023-08-28T23:46:26.295Z,14.50
2023-08-28T23:48:28.126Z,14.50
2023-08-28T23:50:29.943Z,14.40
2023-08-28T23:52:31.656Z,14.30
2023-08-28T23:54:33.437Z,14.30
2023-08-28T23:56:35.219Z,14.30
2023-08-28T23:58:37.001Z,14.30
